sensor_id;sensor_type;location;lat;lon;timestamp;temperature;humidity
3348;DHT22;1687;49.540;8.574;2023-04-12T00:01:31;12.70;52.40
3348;DHT22;1687;49.540;8.574;2023-04-12T00:03:58;12.60;52.40
3348;DHT22;1687;49.540;8.574;2023-04-12T00:06:24;12.60;52.60
3348;DHT22;1687;49.540;8.574;2023-04-12T00:08:58;12.60;52.70
3348;DHT22;1687;49.540;8.574;2023-04-12T00:11:24;12.60;52.80
3348;DHT22;1687;49.540;8.574;2023-04-12T00:13:51;12.50;52.80
3348;DHT22;1687;49.540;8.574;2023-04-12T00:16:17;12.50;53.00
3348;DHT22;1687;49.540;8.574;2023-04-12T00:18:43;12.50;52.90
3348;DHT22;1687;49.540;8.574;2023-04-12T00:21:10;12.40;52.90
3348;DHT22;1687;49.540;8.574;2023-04-12T00:23:36;12.40;53.20
3348;DHT22;1687;49.540;8.574;2023-04-12T00:26:05;12.30;53.10
3348;DHT22;1687;49.540;8.574;2023-04-12T00:28:31;12.40;53.50
3348;DHT22;1687;49.540;8.574;2023-04-12T00:30:56;12.40;53.60
3348;DHT22;1687;49.540;8.574;2023-04-12T00:33:23;12.30;53.30
3348;DHT22;1687;49.540;8.574;2023-04-12T00:35:48;12.40;53.70
3348;DHT22;1687;49.540;8.574;2023-04-12T00:38:14;12.40;53.80
3348;DHT22;1687;49.540;8.574;2023-04-12T00:40:41;12.40;53.90
3348;DHT22;1687;49.540;8.574;2023-04-12T00:43:07;12.40;53.90
3348;DHT22;1687;49.540;8.574;2023-04-12T00:45:35;12.40;53.90
3348;DHT22;1687;49.540;8.574;2023-04-12T00:48:04;12.30;54.10
3348;DHT22;1687;49.540;8.574;2023-04-12T00:50:29;12.30;54.30
3348;DHT22;1687;49.540;8.574;2023-04-12T00:52:56;12.40;54.40
3348;DHT22;1687;49.540;8.574;2023-04-12T00:55:23;12.30;54.40
3348;DHT22;1687;49.540;8.574;2023-04-12T00:57:49;12.20;54.50
3348;DHT22;1687;49.540;8.574;2023-04-12T01:00:16;12.20;54.80
3348;DHT22;1687;49.540;8.574;2023-04-12T01:02:43;12.10;54.70
3348;DHT22;1687;49.540;8.574;2023-04-12T01:05:16;12.00;54.90
3348;DHT22;1687;49.540;8.574;2023-04-12T01:13:48;11.70;55.60
3348;DHT22;1687;49.540;8.574;2023-04-12T01:19:06;11.60;55.80
3348;DHT22;1687;49.540;8.574;2023-04-12T01:27:47;11.70;56.60
3348;DHT22;1687;49.540;8.574;2023-04-12T01:30:16;11.60;56.60
3348;DHT22;1687;49.540;8.574;2023-04-12T01:32:47;11.60;56.80
3348;DHT22;1687;49.540;8.574;2023-04-12T01:35:16;11.60;56.90
3348;DHT22;1687;49.540;8.574;2023-04-12T01:37:44;11.60;57.20
3348;DHT22;1687;49.540;8.574;2023-04-12T01:40:12;11.50;57.00
3348;DHT22;1687;49.540;8.574;2023-04-12T01:42:38;11.50;57.30
3348;DHT22;1687;49.540;8.574;2023-04-12T01:45:07;11.50;57.40
3348;DHT22;1687;49.540;8.574;2023-04-12T01:47:33;11.50;57.80
3348;DHT22;1687;49.540;8.574;2023-04-12T01:50:18;11.60;58.00
3348;DHT22;1687;49.540;8.574;2023-04-12T01:55:58;11.60;58.10
3348;DHT22;1687;49.540;8.574;2023-04-12T01:58:24;11.60;58.20
3348;DHT22;1687;49.540;8.574;2023-04-12T02:00:51;11.40;58.00
3348;DHT22;1687;49.540;8.574;2023-04-12T02:03:19;11.50;58.40
3348;DHT22;1687;49.540;8.574;2023-04-12T02:05:50;11.40;58.20
3348;DHT22;1687;49.540;8.574;2023-04-12T02:08:16;11.30;58.40
3348;DHT22;1687;49.540;8.574;2023-04-12T02:10:42;11.30;58.70
3348;DHT22;1687;49.540;8.574;2023-04-12T02:13:07;11.30;59.00
3348;DHT22;1687;49.540;8.574;2023-04-12T02:15:33;11.40;59.10
3348;DHT22;1687;49.540;8.574;2023-04-12T02:17:59;11.30;59.10
3348;DHT22;1687;49.540;8.574;2023-04-12T02:20:25;11.30;59.10
3348;DHT22;1687;49.540;8.574;2023-04-12T02:22:52;11.20;59.10
3348;DHT22;1687;49.540;8.574;2023-04-12T02:25:17;11.20;59.50
3348;DHT22;1687;49.540;8.574;2023-04-12T02:27:44;11.10;59.40
3348;DHT22;1687;49.540;8.574;2023-04-12T02:30:11;11.00;59.50
3348;DHT22;1687;49.540;8.574;2023-04-12T02:32:37;11.00;60.00
3348;DHT22;1687;49.540;8.574;2023-04-12T02:35:18;11.00;60.10
3348;DHT22;1687;49.540;8.574;2023-04-12T02:37:45;11.00;60.10
3348;DHT22;1687;49.540;8.574;2023-04-12T02:40:13;11.00;60.30
3348;DHT22;1687;49.540;8.574;2023-04-12T02:42:40;10.90;60.30
3348;DHT22;1687;49.540;8.574;2023-04-12T02:45:07;10.90;60.80
3348;DHT22;1687;49.540;8.574;2023-04-12T02:47:33;10.90;60.90
3348;DHT22;1687;49.540;8.574;2023-04-12T02:49:59;10.90;61.10
3348;DHT22;1687;49.540;8.574;2023-04-12T02:52:25;10.90;61.40
3348;DHT22;1687;49.540;8.574;2023-04-12T02:54:53;10.90;61.40
3348;DHT22;1687;49.540;8.574;2023-04-12T02:57:18;10.90;61.40
3348;DHT22;1687;49.540;8.574;2023-04-12T02:59:46;10.80;61.30
3348;DHT22;1687;49.540;8.574;2023-04-12T03:02:13;10.70;61.50
3348;DHT22;1687;49.540;8.574;2023-04-12T03:04:39;10.70;61.90
3348;DHT22;1687;49.540;8.574;2023-04-12T03:07:05;10.70;62.30
3348;DHT22;1687;49.540;8.574;2023-04-12T03:09:31;10.80;62.60
3348;DHT22;1687;49.540;8.574;2023-04-12T03:11:57;10.80;62.30
3348;DHT22;1687;49.540;8.574;2023-04-12T03:14:23;10.70;62.50
3348;DHT22;1687;49.540;8.574;2023-04-12T03:16:48;10.70;62.80
3348;DHT22;1687;49.540;8.574;2023-04-12T03:19:16;10.70;62.90
3348;DHT22;1687;49.540;8.574;2023-04-12T03:21:41;10.80;63.20
3348;DHT22;1687;49.540;8.574;2023-04-12T03:24:07;10.70;63.20
3348;DHT22;1687;49.540;8.574;2023-04-12T03:26:33;10.70;63.40
3348;DHT22;1687;49.540;8.574;2023-04-12T03:29:01;10.70;63.40
3348;DHT22;1687;49.540;8.574;2023-04-12T03:31:32;10.70;63.70
3348;DHT22;1687;49.540;8.574;2023-04-12T03:33:58;10.80;63.80
3348;DHT22;1687;49.540;8.574;2023-04-12T03:36:23;10.80;63.90
3348;DHT22;1687;49.540;8.574;2023-04-12T03:38:49;10.70;63.80
3348;DHT22;1687;49.540;8.574;2023-04-12T03:41:15;10.60;64.00
3348;DHT22;1687;49.540;8.574;2023-04-12T03:43:40;10.70;64.30
3348;DHT22;1687;49.540;8.574;2023-04-12T03:46:07;10.70;64.40
3348;DHT22;1687;49.540;8.574;2023-04-12T03:48:33;10.70;64.70
3348;DHT22;1687;49.540;8.574;2023-04-12T03:50:59;10.70;64.60
3348;DHT22;1687;49.540;8.574;2023-04-12T03:53:25;10.70;64.90
3348;DHT22;1687;49.540;8.574;2023-04-12T03:55:57;10.70;64.90
3348;DHT22;1687;49.540;8.574;2023-04-12T03:58:22;10.80;65.30
3348;DHT22;1687;49.540;8.574;2023-04-12T04:00:48;10.80;65.20
3348;DHT22;1687;49.540;8.574;2023-04-12T04:03:14;10.80;65.30
3348;DHT22;1687;49.540;8.574;2023-04-12T04:05:40;10.80;65.50
3348;DHT22;1687;49.540;8.574;2023-04-12T04:08:06;10.80;65.30
3348;DHT22;1687;49.540;8.574;2023-04-12T04:10:33;10.70;65.20
3348;DHT22;1687;49.540;8.574;2023-04-12T04:12:58;10.70;65.40
3348;DHT22;1687;49.540;8.574;2023-04-12T04:15:25;10.60;65.40
3348;DHT22;1687;49.540;8.574;2023-04-12T04:17:51;10.70;66.10
3348;DHT22;1687;49.540;8.574;2023-04-12T04:20:17;10.80;66.30
3348;DHT22;1687;49.540;8.574;2023-04-12T04:22:44;10.80;66.00
3348;DHT22;1687;49.540;8.574;2023-04-12T04:25:13;10.90;66.30
3348;DHT22;1687;49.540;8.574;2023-04-12T04:27:40;10.90;66.40
3348;DHT22;1687;49.540;8.574;2023-04-12T04:30:10;11.00;66.40
3348;DHT22;1687;49.540;8.574;2023-04-12T04:32:37;11.00;66.60
3348;DHT22;1687;49.540;8.574;2023-04-12T04:35:04;11.00;66.60
3348;DHT22;1687;49.540;8.574;2023-04-12T04:37:30;11.00;66.60
3348;DHT22;1687;49.540;8.574;2023-04-12T04:39:57;11.00;66.70
3348;DHT22;1687;49.540;8.574;2023-04-12T04:42:23;11.10;67.00
3348;DHT22;1687;49.540;8.574;2023-04-12T04:44:49;11.10;66.90
3348;DHT22;1687;49.540;8.574;2023-04-12T04:47:15;11.00;66.80
3348;DHT22;1687;49.540;8.574;2023-04-12T04:49:43;11.10;67.10
3348;DHT22;1687;49.540;8.574;2023-04-12T04:52:09;11.10;67.10
3348;DHT22;1687;49.540;8.574;2023-04-12T04:54:35;11.10;67.10
3348;DHT22;1687;49.540;8.574;2023-04-12T04:57:00;11.10;67.00
3348;DHT22;1687;49.540;8.574;2023-04-12T04:59:27;11.00;67.10
3348;DHT22;1687;49.540;8.574;2023-04-12T05:01:52;11.00;67.20
3348;DHT22;1687;49.540;8.574;2023-04-12T05:04:18;11.00;67.10
3348;DHT22;1687;49.540;8.574;2023-04-12T05:06:45;11.00;67.40
3348;DHT22;1687;49.540;8.574;2023-04-12T05:09:10;11.00;67.40
3348;DHT22;1687;49.540;8.574;2023-04-12T05:11:36;11.00;67.60
3348;DHT22;1687;49.540;8.574;2023-04-12T05:14:02;11.00;67.60
3348;DHT22;1687;49.540;8.574;2023-04-12T05:16:28;11.00;67.60
3348;DHT22;1687;49.540;8.574;2023-04-12T05:18:53;11.00;67.90
3348;DHT22;1687;49.540;8.574;2023-04-12T05:21:19;11.10;67.80
3348;DHT22;1687;49.540;8.574;2023-04-12T05:23:45;11.10;67.70
3348;DHT22;1687;49.540;8.574;2023-04-12T05:26:11;11.10;67.70
3348;DHT22;1687;49.540;8.574;2023-04-12T05:28:37;11.10;67.90
3348;DHT22;1687;49.540;8.574;2023-04-12T05:31:03;11.00;67.70
3348;DHT22;1687;49.540;8.574;2023-04-12T05:33:29;10.90;67.70
3348;DHT22;1687;49.540;8.574;2023-04-12T05:35:56;10.90;67.90
3348;DHT22;1687;49.540;8.574;2023-04-12T05:38:21;10.70;67.50
3348;DHT22;1687;49.540;8.574;2023-04-12T05:40:48;10.60;67.90
3348;DHT22;1687;49.540;8.574;2023-04-12T05:43:14;10.60;68.00
3348;DHT22;1687;49.540;8.574;2023-04-12T05:45:40;10.60;68.10
3348;DHT22;1687;49.540;8.574;2023-04-12T05:48:06;10.60;68.30
3348;DHT22;1687;49.540;8.574;2023-04-12T05:50:32;10.60;68.50
3348;DHT22;1687;49.540;8.574;2023-04-12T05:53:00;10.70;68.60
3348;DHT22;1687;49.540;8.574;2023-04-12T05:55:29;10.70;68.70
3348;DHT22;1687;49.540;8.574;2023-04-12T05:57:55;10.70;69.20
3348;DHT22;1687;49.540;8.574;2023-04-12T06:00:22;10.70;68.70
3348;DHT22;1687;49.540;8.574;2023-04-12T06:02:48;10.70;68.70
3348;DHT22;1687;49.540;8.574;2023-04-12T06:05:15;10.70;68.80
3348;DHT22;1687;49.540;8.574;2023-04-12T06:07:43;10.70;68.90
3348;DHT22;1687;49.540;8.574;2023-04-12T06:10:14;10.70;68.80
3348;DHT22;1687;49.540;8.574;2023-04-12T06:12:41;10.70;69.00
3348;DHT22;1687;49.540;8.574;2023-04-12T06:15:07;10.70;69.10
3348;DHT22;1687;49.540;8.574;2023-04-12T06:17:33;10.80;69.40
3348;DHT22;1687;49.540;8.574;2023-04-12T06:19:59;10.80;69.30
3348;DHT22;1687;49.540;8.574;2023-04-12T06:22:25;10.80;69.50
3348;DHT22;1687;49.540;8.574;2023-04-12T06:24:51;10.80;69.40
3348;DHT22;1687;49.540;8.574;2023-04-12T06:27:16;10.80;69.30
3348;DHT22;1687;49.540;8.574;2023-04-12T06:29:42;10.80;69.60
3348;DHT22;1687;49.540;8.574;2023-04-12T06:32:08;10.80;69.50
3348;DHT22;1687;49.540;8.574;2023-04-12T06:34:33;10.90;69.80
3348;DHT22;1687;49.540;8.574;2023-04-12T06:36:59;10.90;69.60
3348;DHT22;1687;49.540;8.574;2023-04-12T06:39:25;10.90;69.90
3348;DHT22;1687;49.540;8.574;2023-04-12T06:41:50;10.80;69.80
3348;DHT22;1687;49.540;8.574;2023-04-12T06:44:16;10.90;70.10
3348;DHT22;1687;49.540;8.574;2023-04-12T06:46:42;10.90;70.20
3348;DHT22;1687;49.540;8.574;2023-04-12T06:49:07;11.00;70.10
3348;DHT22;1687;49.540;8.574;2023-04-12T06:51:33;11.00;70.30
3348;DHT22;1687;49.540;8.574;2023-04-12T06:54:00;11.10;70.50
3348;DHT22;1687;49.540;8.574;2023-04-12T06:56:25;11.10;70.30
3348;DHT22;1687;49.540;8.574;2023-04-12T06:58:52;11.10;70.40
3348;DHT22;1687;49.540;8.574;2023-04-12T07:01:17;11.10;70.30
3348;DHT22;1687;49.540;8.574;2023-04-12T07:03:43;11.10;70.40
3348;DHT22;1687;49.540;8.574;2023-04-12T07:06:09;11.10;70.70
3348;DHT22;1687;49.540;8.574;2023-04-12T07:08:35;11.10;70.70
3348;DHT22;1687;49.540;8.574;2023-04-12T07:11:02;11.20;70.90
3348;DHT22;1687;49.540;8.574;2023-04-12T07:13:28;11.20;70.50
3348;DHT22;1687;49.540;8.574;2023-04-12T07:15:55;11.10;70.60
3348;DHT22;1687;49.540;8.574;2023-04-12T07:18:22;11.20;71.10
3348;DHT22;1687;49.540;8.574;2023-04-12T07:20:48;11.30;70.90
3348;DHT22;1687;49.540;8.574;2023-04-12T07:23:15;11.30;71.20
3348;DHT22;1687;49.540;8.574;2023-04-12T07:25:41;11.50;71.40
3348;DHT22;1687;49.540;8.574;2023-04-12T07:28:06;11.50;71.30
3348;DHT22;1687;49.540;8.574;2023-04-12T07:30:32;11.60;71.60
3348;DHT22;1687;49.540;8.574;2023-04-12T07:32:58;11.70;71.40
3348;DHT22;1687;49.540;8.574;2023-04-12T07:35:27;11.60;71.10
3348;DHT22;1687;49.540;8.574;2023-04-12T07:37:53;11.60;71.30
3348;DHT22;1687;49.540;8.574;2023-04-12T07:40:19;11.60;71.50
3348;DHT22;1687;49.540;8.574;2023-04-12T07:42:44;11.60;71.50
3348;DHT22;1687;49.540;8.574;2023-04-12T07:45:10;11.60;71.40
3348;DHT22;1687;49.540;8.574;2023-04-12T07:47:36;11.70;72.00
3348;DHT22;1687;49.540;8.574;2023-04-12T07:50:01;11.80;71.80
3348;DHT22;1687;49.540;8.574;2023-04-12T07:52:28;11.90;72.00
3348;DHT22;1687;49.540;8.574;2023-04-12T07:54:54;12.00;72.20
3348;DHT22;1687;49.540;8.574;2023-04-12T07:57:20;12.00;71.90
3348;DHT22;1687;49.540;8.574;2023-04-12T07:59:46;12.00;72.00
3348;DHT22;1687;49.540;8.574;2023-04-12T08:02:11;12.10;72.20
3348;DHT22;1687;49.540;8.574;2023-04-12T08:04:37;12.10;72.20
3348;DHT22;1687;49.540;8.574;2023-04-12T08:07:03;12.10;72.10
3348;DHT22;1687;49.540;8.574;2023-04-12T08:09:28;12.00;72.00
3348;DHT22;1687;49.540;8.574;2023-04-12T08:11:55;12.10;72.10
3348;DHT22;1687;49.540;8.574;2023-04-12T08:14:22;12.10;72.40
3348;DHT22;1687;49.540;8.574;2023-04-12T08:16:48;12.10;72.00
3348;DHT22;1687;49.540;8.574;2023-04-12T08:19:13;12.20;72.60
3348;DHT22;1687;49.540;8.574;2023-04-12T08:21:39;12.30;72.70
3348;DHT22;1687;49.540;8.574;2023-04-12T08:24:05;12.30;72.50
3348;DHT22;1687;49.540;8.574;2023-04-12T08:26:31;12.40;72.70
3348;DHT22;1687;49.540;8.574;2023-04-12T08:28:56;12.30;72.40
3348;DHT22;1687;49.540;8.574;2023-04-12T08:31:22;12.30;72.40
3348;DHT22;1687;49.540;8.574;2023-04-12T08:33:48;12.40;72.70
3348;DHT22;1687;49.540;8.574;2023-04-12T08:36:14;12.40;72.80
3348;DHT22;1687;49.540;8.574;2023-04-12T08:38:40;12.40;72.80
3348;DHT22;1687;49.540;8.574;2023-04-12T08:41:06;12.40;72.60
3348;DHT22;1687;49.540;8.574;2023-04-12T08:43:32;12.50;73.10
3348;DHT22;1687;49.540;8.574;2023-04-12T08:45:59;12.50;73.10
3348;DHT22;1687;49.540;8.574;2023-04-12T08:48:26;12.50;73.00
3348;DHT22;1687;49.540;8.574;2023-04-12T08:50:55;12.60;73.20
3348;DHT22;1687;49.540;8.574;2023-04-12T08:53:21;12.50;72.80
3348;DHT22;1687;49.540;8.574;2023-04-12T08:55:47;12.60;73.50
3348;DHT22;1687;49.540;8.574;2023-04-12T08:58:13;12.80;73.80
3348;DHT22;1687;49.540;8.574;2023-04-12T09:00:40;12.80;73.50
3348;DHT22;1687;49.540;8.574;2023-04-12T09:03:07;12.90;73.50
3348;DHT22;1687;49.540;8.574;2023-04-12T09:05:34;12.90;73.50
3348;DHT22;1687;49.540;8.574;2023-04-12T09:08:00;12.90;73.60
3348;DHT22;1687;49.540;8.574;2023-04-12T09:10:34;13.00;73.60
3348;DHT22;1687;49.540;8.574;2023-04-12T09:13:03;12.90;73.20
3348;DHT22;1687;49.540;8.574;2023-04-12T09:15:29;13.00;73.60
3348;DHT22;1687;49.540;8.574;2023-04-12T09:18:22;12.90;73.40
3348;DHT22;1687;49.540;8.574;2023-04-12T09:20:48;12.80;73.30
3348;DHT22;1687;49.540;8.574;2023-04-12T09:23:18;12.80;73.70
3348;DHT22;1687;49.540;8.574;2023-04-12T09:25:49;13.00;73.90
3348;DHT22;1687;49.540;8.574;2023-04-12T09:28:25;13.00;73.90
3348;DHT22;1687;49.540;8.574;2023-04-12T09:30:53;13.10;74.00
3348;DHT22;1687;49.540;8.574;2023-04-12T09:33:33;13.10;74.20
3348;DHT22;1687;49.540;8.574;2023-04-12T09:36:04;13.10;73.90
3348;DHT22;1687;49.540;8.574;2023-04-12T09:38:33;13.10;74.00
3348;DHT22;1687;49.540;8.574;2023-04-12T09:41:15;13.20;74.30
3348;DHT22;1687;49.540;8.574;2023-04-12T09:43:42;13.30;74.40
3348;DHT22;1687;49.540;8.574;2023-04-12T09:46:12;13.40;74.30
3348;DHT22;1687;49.540;8.574;2023-04-12T09:48:39;13.40;74.50
3348;DHT22;1687;49.540;8.574;2023-04-12T09:51:06;13.40;74.10
3348;DHT22;1687;49.540;8.574;2023-04-12T09:53:37;13.30;74.00
3348;DHT22;1687;49.540;8.574;2023-04-12T09:56:08;13.30;75.10
3348;DHT22;1687;49.540;8.574;2023-04-12T09:58:35;13.30;74.60
3348;DHT22;1687;49.540;8.574;2023-04-12T10:01:02;13.30;74.40
3348;DHT22;1687;49.540;8.574;2023-04-12T10:03:28;13.20;74.40
3348;DHT22;1687;49.540;8.574;2023-04-12T10:05:54;13.20;74.40
3348;DHT22;1687;49.540;8.574;2023-04-12T10:08:22;13.30;74.90
3348;DHT22;1687;49.540;8.574;2023-04-12T10:10:48;13.30;75.10
3348;DHT22;1687;49.540;8.574;2023-04-12T10:13:14;13.40;75.00
3348;DHT22;1687;49.540;8.574;2023-04-12T10:15:44;13.40;74.70
3348;DHT22;1687;49.540;8.574;2023-04-12T10:18:13;13.30;74.70
3348;DHT22;1687;49.540;8.574;2023-04-12T10:20:39;13.20;74.70
3348;DHT22;1687;49.540;8.574;2023-04-12T10:23:08;13.20;74.90
3348;DHT22;1687;49.540;8.574;2023-04-12T10:25:37;13.20;75.20
3348;DHT22;1687;49.540;8.574;2023-04-12T10:28:14;13.30;75.00
3348;DHT22;1687;49.540;8.574;2023-04-12T10:30:43;13.30;75.00
3348;DHT22;1687;49.540;8.574;2023-04-12T10:38:27;13.40;75.70
3348;DHT22;1687;49.540;8.574;2023-04-12T10:43:50;13.30;75.90
3348;DHT22;1687;49.540;8.574;2023-04-12T10:49:11;13.40;75.80
3348;DHT22;1687;49.540;8.574;2023-04-12T10:51:39;13.30;76.10
3348;DHT22;1687;49.540;8.574;2023-04-12T10:56:51;13.30;76.30
3348;DHT22;1687;49.540;8.574;2023-04-12T10:59:17;13.30;76.40
3348;DHT22;1687;49.540;8.574;2023-04-12T11:02:09;13.30;76.80
3348;DHT22;1687;49.540;8.574;2023-04-12T11:04:36;13.30;76.80
3348;DHT22;1687;49.540;8.574;2023-04-12T11:07:09;13.40;77.50
3348;DHT22;1687;49.540;8.574;2023-04-12T11:09:41;13.40;77.10
3348;DHT22;1687;49.540;8.574;2023-04-12T11:14:34;13.30;77.10
3348;DHT22;1687;49.540;8.574;2023-04-12T11:19:34;13.50;78.00
3348;DHT22;1687;49.540;8.574;2023-04-12T11:22:03;13.50;78.00
3348;DHT22;1687;49.540;8.574;2023-04-12T11:24:30;13.60;78.50
3348;DHT22;1687;49.540;8.574;2023-04-12T11:26:56;13.60;78.20
3348;DHT22;1687;49.540;8.574;2023-04-12T11:29:26;13.60;77.80
3348;DHT22;1687;49.540;8.574;2023-04-12T11:31:52;13.60;78.70
3348;DHT22;1687;49.540;8.574;2023-04-12T11:34:18;13.70;79.00
3348;DHT22;1687;49.540;8.574;2023-04-12T11:36:45;13.80;79.40
3348;DHT22;1687;49.540;8.574;2023-04-12T11:39:12;13.80;79.20
3348;DHT22;1687;49.540;8.574;2023-04-12T11:41:48;13.80;78.80
3348;DHT22;1687;49.540;8.574;2023-04-12T11:44:15;13.80;79.00
3348;DHT22;1687;49.540;8.574;2023-04-12T11:46:46;13.90;79.70
3348;DHT22;1687;49.540;8.574;2023-04-12T11:49:17;13.90;79.60
3348;DHT22;1687;49.540;8.574;2023-04-12T11:51:44;13.90;79.20
3348;DHT22;1687;49.540;8.574;2023-04-12T11:54:10;13.90;79.70
3348;DHT22;1687;49.540;8.574;2023-04-12T11:56:37;14.00;80.40
3348;DHT22;1687;49.540;8.574;2023-04-12T11:59:04;14.00;80.30
3348;DHT22;1687;49.540;8.574;2023-04-12T12:01:30;14.00;80.10
3348;DHT22;1687;49.540;8.574;2023-04-12T12:03:57;14.10;81.40
3348;DHT22;1687;49.540;8.574;2023-04-12T12:06:23;14.10;80.80
3348;DHT22;1687;49.540;8.574;2023-04-12T12:08:50;14.20;82.20
3348;DHT22;1687;49.540;8.574;2023-04-12T12:11:18;14.10;81.80
3348;DHT22;1687;49.540;8.574;2023-04-12T12:13:54;14.10;81.40
3348;DHT22;1687;49.540;8.574;2023-04-12T12:16:25;14.20;82.00
3348;DHT22;1687;49.540;8.574;2023-04-12T12:18:52;14.20;82.30
3348;DHT22;1687;49.540;8.574;2023-04-12T12:21:19;14.30;82.60
3348;DHT22;1687;49.540;8.574;2023-04-12T12:23:46;14.40;82.70
3348;DHT22;1687;49.540;8.574;2023-04-12T12:26:39;14.40;83.00
3348;DHT22;1687;49.540;8.574;2023-04-12T12:29:05;14.40;82.70
3348;DHT22;1687;49.540;8.574;2023-04-12T12:31:33;14.40;82.80
3348;DHT22;1687;49.540;8.574;2023-04-12T12:33:59;14.40;83.20
3348;DHT22;1687;49.540;8.574;2023-04-12T12:36:35;14.40;82.60
3348;DHT22;1687;49.540;8.574;2023-04-12T12:39:07;14.50;83.30
3348;DHT22;1687;49.540;8.574;2023-04-12T12:41:36;14.60;84.40
3348;DHT22;1687;49.540;8.574;2023-04-12T12:44:02;14.70;84.50
3348;DHT22;1687;49.540;8.574;2023-04-12T12:46:32;14.70;83.40
3348;DHT22;1687;49.540;8.574;2023-04-12T12:48:58;14.60;83.20
3348;DHT22;1687;49.540;8.574;2023-04-12T12:51:23;14.50;83.40
3348;DHT22;1687;49.540;8.574;2023-04-12T12:53:51;14.50;83.20
3348;DHT22;1687;49.540;8.574;2023-04-12T12:56:17;14.40;83.00
3348;DHT22;1687;49.540;8.574;2023-04-12T12:58:42;14.20;83.10
3348;DHT22;1687;49.540;8.574;2023-04-12T13:01:08;14.20;84.20
3348;DHT22;1687;49.540;8.574;2023-04-12T13:03:34;14.30;84.50
3348;DHT22;1687;49.540;8.574;2023-04-12T13:06:00;14.30;83.70
3348;DHT22;1687;49.540;8.574;2023-04-12T13:08:26;14.20;83.70
3348;DHT22;1687;49.540;8.574;2023-04-12T13:10:52;14.10;84.20
3348;DHT22;1687;49.540;8.574;2023-04-12T13:13:18;14.00;84.20
3348;DHT22;1687;49.540;8.574;2023-04-12T13:15:44;14.10;85.40
3348;DHT22;1687;49.540;8.574;2023-04-12T13:18:12;14.30;86.30
3348;DHT22;1687;49.540;8.574;2023-04-12T13:20:41;14.50;86.20
3348;DHT22;1687;49.540;8.574;2023-04-12T13:23:07;14.50;85.40
3348;DHT22;1687;49.540;8.574;2023-04-12T13:25:33;14.50;85.30
3348;DHT22;1687;49.540;8.574;2023-04-12T13:27:58;14.40;85.20
3348;DHT22;1687;49.540;8.574;2023-04-12T13:30:24;14.50;86.10
3348;DHT22;1687;49.540;8.574;2023-04-12T13:32:49;14.50;86.10
3348;DHT22;1687;49.540;8.574;2023-04-12T13:35:15;14.50;86.90
3348;DHT22;1687;49.540;8.574;2023-04-12T13:37:41;14.70;87.40
3348;DHT22;1687;49.540;8.574;2023-04-12T13:40:07;14.80;87.20
3348;DHT22;1687;49.540;8.574;2023-04-12T13:42:33;15.00;87.40
3348;DHT22;1687;49.540;8.574;2023-04-12T13:44:59;15.10;87.60
3348;DHT22;1687;49.540;8.574;2023-04-12T13:47:26;15.00;86.00
3348;DHT22;1687;49.540;8.574;2023-04-12T13:49:52;14.90;86.60
3348;DHT22;1687;49.540;8.574;2023-04-12T13:52:18;15.00;86.60
3348;DHT22;1687;49.540;8.574;2023-04-12T13:54:45;14.90;86.20
3348;DHT22;1687;49.540;8.574;2023-04-12T13:57:10;15.00;86.80
3348;DHT22;1687;49.540;8.574;2023-04-12T13:59:36;15.20;87.50
3348;DHT22;1687;49.540;8.574;2023-04-12T14:02:02;15.30;87.70
3348;DHT22;1687;49.540;8.574;2023-04-12T14:04:28;15.50;87.20
3348;DHT22;1687;49.540;8.574;2023-04-12T14:06:54;15.60;87.70
3348;DHT22;1687;49.540;8.574;2023-04-12T14:09:22;15.60;86.50
3348;DHT22;1687;49.540;8.574;2023-04-12T14:11:52;15.60;87.10
3348;DHT22;1687;49.540;8.574;2023-04-12T14:14:23;15.40;86.20
3348;DHT22;1687;49.540;8.574;2023-04-12T14:16:50;15.30;86.40
3348;DHT22;1687;49.540;8.574;2023-04-12T14:19:18;15.20;86.60
3348;DHT22;1687;49.540;8.574;2023-04-12T14:21:46;15.20;87.70
3348;DHT22;1687;49.540;8.574;2023-04-12T14:24:13;15.20;87.60
3348;DHT22;1687;49.540;8.574;2023-04-12T14:26:39;15.20;86.90
3348;DHT22;1687;49.540;8.574;2023-04-12T14:29:05;15.20;86.70
3348;DHT22;1687;49.540;8.574;2023-04-12T14:31:32;15.20;87.60
3348;DHT22;1687;49.540;8.574;2023-04-12T14:33:58;15.10;86.90
3348;DHT22;1687;49.540;8.574;2023-04-12T14:36:24;15.00;86.10
3348;DHT22;1687;49.540;8.574;2023-04-12T14:38:51;14.80;85.70
3348;DHT22;1687;49.540;8.574;2023-04-12T14:41:17;14.70;86.00
3348;DHT22;1687;49.540;8.574;2023-04-12T14:43:43;14.70;87.30
3348;DHT22;1687;49.540;8.574;2023-04-12T14:46:10;14.60;85.80
3348;DHT22;1687;49.540;8.574;2023-04-12T14:48:36;14.60;86.30
3348;DHT22;1687;49.540;8.574;2023-04-12T14:51:01;14.60;86.50
3348;DHT22;1687;49.540;8.574;2023-04-12T14:53:28;14.70;86.20
3348;DHT22;1687;49.540;8.574;2023-04-12T14:55:54;14.70;85.90
3348;DHT22;1687;49.540;8.574;2023-04-12T14:58:20;14.80;85.80
3348;DHT22;1687;49.540;8.574;2023-04-12T15:00:46;14.80;86.20
3348;DHT22;1687;49.540;8.574;2023-04-12T15:03:11;14.90;85.20
3348;DHT22;1687;49.540;8.574;2023-04-12T15:05:37;14.90;84.70
3348;DHT22;1687;49.540;8.574;2023-04-12T15:08:03;14.80;84.50
3348;DHT22;1687;49.540;8.574;2023-04-12T15:10:29;14.70;84.00
3348;DHT22;1687;49.540;8.574;2023-04-12T15:12:55;14.70;84.70
3348;DHT22;1687;49.540;8.574;2023-04-12T15:15:22;14.70;84.00
3348;DHT22;1687;49.540;8.574;2023-04-12T15:17:48;14.70;84.00
3348;DHT22;1687;49.540;8.574;2023-04-12T15:20:14;14.80;84.00
3348;DHT22;1687;49.540;8.574;2023-04-12T15:22:41;14.90;84.40
3348;DHT22;1687;49.540;8.574;2023-04-12T15:25:08;14.90;83.60
3348;DHT22;1687;49.540;8.574;2023-04-12T15:27:36;14.90;83.60
3348;DHT22;1687;49.540;8.574;2023-04-12T15:30:03;14.90;83.10
3348;DHT22;1687;49.540;8.574;2023-04-12T15:32:33;14.80;82.80
3348;DHT22;1687;49.540;8.574;2023-04-12T15:35:02;14.80;83.30
3348;DHT22;1687;49.540;8.574;2023-04-12T15:37:32;14.80;83.00
3348;DHT22;1687;49.540;8.574;2023-04-12T15:40:01;14.70;82.60
3348;DHT22;1687;49.540;8.574;2023-04-12T15:42:41;14.70;82.40
3348;DHT22;1687;49.540;8.574;2023-04-12T15:45:08;14.70;82.50
3348;DHT22;1687;49.540;8.574;2023-04-12T15:47:35;14.70;82.50
3348;DHT22;1687;49.540;8.574;2023-04-12T15:50:02;14.80;82.00
3348;DHT22;1687;49.540;8.574;2023-04-12T15:52:28;14.90;82.20
3348;DHT22;1687;49.540;8.574;2023-04-12T15:54:54;15.20;82.90
3348;DHT22;1687;49.540;8.574;2023-04-12T15:57:20;15.70;82.90
3348;DHT22;1687;49.540;8.574;2023-04-12T15:59:46;16.90;84.50
3348;DHT22;1687;49.540;8.574;2023-04-12T16:02:12;18.50;83.60
3348;DHT22;1687;49.540;8.574;2023-04-12T16:04:37;20.70;85.00
3348;DHT22;1687;49.540;8.574;2023-04-12T16:07:03;22.80;82.80
3348;DHT22;1687;49.540;8.574;2023-04-12T16:09:31;24.70;81.50
3348;DHT22;1687;49.540;8.574;2023-04-12T16:11:57;26.40;79.40
3348;DHT22;1687;49.540;8.574;2023-04-12T16:14:24;27.60;77.00
3348;DHT22;1687;49.540;8.574;2023-04-12T16:16:49;28.60;75.50
3348;DHT22;1687;49.540;8.574;2023-04-12T16:19:15;29.10;72.30
3348;DHT22;1687;49.540;8.574;2023-04-12T16:21:41;29.60;70.90
3348;DHT22;1687;49.540;8.574;2023-04-12T16:24:07;29.00;67.80
3348;DHT22;1687;49.540;8.574;2023-04-12T16:26:33;29.00;67.60
3348;DHT22;1687;49.540;8.574;2023-04-12T16:28:59;29.20;66.70
3348;DHT22;1687;49.540;8.574;2023-04-12T16:31:28;29.40;64.80
3348;DHT22;1687;49.540;8.574;2023-04-12T16:33:55;27.90;61.40
3348;DHT22;1687;49.540;8.574;2023-04-12T16:36:20;26.10;62.40
3348;DHT22;1687;49.540;8.574;2023-04-12T16:38:51;24.40;61.80